createdAt,value
2023-04-02T00:01:01.354Z,63.71
2023-04-02T00:03:43.888Z,63.74
2023-04-02T00:06:34.441Z,63.67
2023-04-02T00:09:23.476Z,63.78
2023-04-02T00:11:56.240Z,63.65
2023-04-02T00:14:35.124Z,63.77
2023-04-02T00:17:07.436Z,63.51
2023-04-02T00:19:51.805Z,63.57
2023-04-02T00:22:31.377Z,63.64
2023-04-02T00:25:12.606Z,63.30
2023-04-02T00:27:45.747Z,63.71
2023-04-02T00:30:18.253Z,63.00
2023-04-02T00:32:51.773Z,63.30
2023-04-02T00:35:28.544Z,63.47
2023-04-02T00:38:02.262Z,63.40
2023-04-02T00:40:34.666Z,63.23
2023-04-02T00:43:08.425Z,63.24
2023-04-02T00:45:41.551Z,63.13
2023-04-02T00:48:45.064Z,63.26
2023-04-02T00:51:26.238Z,63.16
2023-04-02T00:54:04.086Z,63.12
2023-04-02T00:56:48.658Z,63.35
2023-04-02T00:59:28.958Z,63.17
2023-04-02T01:02:26.617Z,63.00
2023-04-02T01:05:15.821Z,63.09
2023-04-02T01:07:58.830Z,63.11
2023-04-02T01:11:03.431Z,63.10
2023-04-02T01:13:41.929Z,63.23
2023-04-02T01:16:26.004Z,62.99
2023-04-02T01:19:21.184Z,62.78
2023-04-02T01:22:22.944Z,62.96
2023-04-02T01:24:58.474Z,63.02
2023-04-02T01:28:19.717Z,62.90
2023-04-02T01:30:56.066Z,63.17
2023-04-02T01:33:35.374Z,62.88
2023-04-02T01:36:26.423Z,62.71
2023-04-02T01:39:17.219Z,62.76
2023-04-02T01:41:59.403Z,62.74
2023-04-02T01:44:50.018Z,62.66
2023-04-02T01:47:27.424Z,62.21
2023-04-02T01:50:14.787Z,62.94
2023-04-02T01:52:51.752Z,62.71
2023-04-02T01:55:48.860Z,62.61
2023-04-02T01:58:28.076Z,62.49
2023-04-02T02:01:17.485Z,62.63
2023-04-02T02:03:51.064Z,62.66
2023-04-02T02:06:24.529Z,62.36
2023-04-02T02:09:04.343Z,62.74
2023-04-02T02:11:37.555Z,62.53
2023-04-02T02:14:16.929Z,62.38
2023-04-02T02:16:50.333Z,62.73
2023-04-02T02:19:45.798Z,62.48
2023-04-02T02:22:29.472Z,62.43
2023-04-02T02:25:11.306Z,62.84
2023-04-02T02:27:49.809Z,62.38
2023-04-02T02:30:38.290Z,62.60
2023-04-02T02:33:15.358Z,62.47
2023-04-02T02:35:57.505Z,62.13
2023-04-02T02:38:35.171Z,62.51
2023-04-02T02:41:27.046Z,62.35
2023-04-02T02:44:10.556Z,62.35
2023-04-02T02:46:50.480Z,62.55
2023-04-02T02:49:29.394Z,62.47
2023-04-02T02:52:13.112Z,62.45
2023-04-02T02:54:58.078Z,62.08
2023-04-02T02:57:38.965Z,62.68
2023-04-02T03:00:11.993Z,62.43
2023-04-02T03:02:46.534Z,62.28
2023-04-02T03:05:24.122Z,62.45
2023-04-02T03:08:02.008Z,62.27
2023-04-02T03:10:43.494Z,62.53
2023-04-02T03:13:23.802Z,62.16
2023-04-02T03:16:12.939Z,61.94
2023-04-02T03:18:58.582Z,62.49
2023-04-02T03:21:31.419Z,62.67
2023-04-02T03:24:18.976Z,62.39
2023-04-02T03:27:25.630Z,62.21
2023-04-02T03:30:06.735Z,62.40
2023-04-02T03:32:43.802Z,62.31
2023-04-02T03:35:26.559Z,62.06
2023-04-02T03:38:05.548Z,62.22
2023-04-02T03:40:48.329Z,62.36
2023-04-02T03:43:25.577Z,62.47
2023-04-02T03:46:34.268Z,62.53
2023-04-02T03:49:24.409Z,62.45
2023-04-02T03:52:20.232Z,62.07
2023-04-02T03:54:56.347Z,62.33
2023-04-02T03:57:36.984Z,62.23
2023-04-02T04:00:16.900Z,62.20
2023-04-02T04:02:59.240Z,62.08
2023-04-02T04:05:43.960Z,62.09
2023-04-02T04:08:26.963Z,62.26
2023-04-02T04:11:03.850Z,62.08
2023-04-02T04:13:47.128Z,62.51
2023-04-02T04:16:26.721Z,62.01
2023-04-02T04:19:21.997Z,62.52
2023-04-02T04:22:09.870Z,62.25
2023-04-02T04:24:45.670Z,62.34
2023-04-02T04:27:33.809Z,62.54
2023-04-02T04:30:15.015Z,62.16
2023-04-02T04:32:58.139Z,62.48
2023-04-02T04:35:37.232Z,62.30
2023-04-02T04:38:17.537Z,62.24
2023-04-02T04:41:05.099Z,62.22
2023-04-02T04:44:01.079Z,62.04
2023-04-02T04:46:42.553Z,62.16
2023-04-02T04:49:21.005Z,62.48
2023-04-02T04:52:22.521Z,61.80
2023-04-02T04:54:56.571Z,61.97
2023-04-02T04:57:35.395Z,62.20
2023-04-02T05:00:45.005Z,61.80
2023-04-02T05:03:33.554Z,61.98
2023-04-02T05:06:19.794Z,62.00
2023-04-02T05:08:56.512Z,62.43
2023-04-02T05:11:45.839Z,61.91
2023-04-02T05:14:34.072Z,62.18
2023-04-02T05:17:26.338Z,62.07
2023-04-02T05:20:38.502Z,62.25
2023-04-02T05:23:21.226Z,62.20
2023-04-02T05:26:12.168Z,62.05
2023-04-02T05:28:51.875Z,61.87
2023-04-02T05:31:44.200Z,62.32
2023-04-02T05:34:25.992Z,61.85
2023-04-02T05:37:00.460Z,61.97
2023-04-02T05:39:33.021Z,61.77
2023-04-02T05:42:15.408Z,61.88
2023-04-02T05:45:16.584Z,61.81
2023-04-02T05:47:52.317Z,61.92
2023-04-02T05:50:37.635Z,62.31
2023-04-02T05:53:30.691Z,62.04
2023-04-02T05:56:15.557Z,62.63
2023-04-02T05:58:56.028Z,62.17
2023-04-02T06:02:03.586Z,62.13
2023-04-02T06:04:50.326Z,62.13
2023-04-02T06:07:28.511Z,62.49
2023-04-02T06:10:10.300Z,62.21
2023-04-02T06:12:52.428Z,62.49
2023-04-02T06:15:26.010Z,62.55
2023-04-02T06:18:35.260Z,62.49
2023-04-02T06:21:12.728Z,62.59
2023-04-02T06:23:52.407Z,62.54
2023-04-02T06:26:33.884Z,62.66
2023-04-02T06:29:20.214Z,62.72
2023-04-02T06:32:01.469Z,62.62
2023-04-02T06:34:38.228Z,62.50
2023-04-02T06:37:35.846Z,62.63
2023-04-02T06:40:47.429Z,62.41
2023-04-02T06:43:45.939Z,62.63
2023-04-02T06:46:45.425Z,62.53
2023-04-02T06:49:25.970Z,62.39
2023-04-02T06:52:05.891Z,62.25
2023-04-02T06:54:38.373Z,62.49
2023-04-02T06:57:14.737Z,62.17
2023-04-02T06:59:51.020Z,62.29
2023-04-02T07:02:37.088Z,62.35
2023-04-02T07:05:13.172Z,62.24
2023-04-02T07:07:50.970Z,62.38
2023-04-02T07:10:24.202Z,62.48
2023-04-02T07:12:56.909Z,62.25
2023-04-02T07:15:30.933Z,62.55
2023-04-02T07:18:04.671Z,62.37
2023-04-02T07:20:37.924Z,62.34
2023-04-02T07:23:16.518Z,62.11
2023-04-02T07:25:57.121Z,62.41
2023-04-02T07:28:30.216Z,62.71
2023-04-02T07:31:02.908Z,62.57
2023-04-02T07:33:35.478Z,62.55
2023-04-02T07:36:08.181Z,62.49
2023-04-02T07:38:41.084Z,62.41
2023-04-02T07:41:19.954Z,62.36
2023-04-02T07:43:53.612Z,62.48
2023-04-02T07:46:27.358Z,62.53
2023-04-02T07:48:59.779Z,62.46
2023-04-02T07:51:32.939Z,62.58
2023-04-02T07:54:05.511Z,62.84
2023-04-02T07:56:38.637Z,62.21
2023-04-02T07:59:11.417Z,62.25
2023-04-02T08:01:44.140Z,62.41
2023-04-02T08:04:19.817Z,62.54
2023-04-02T08:06:53.134Z,62.22
2023-04-02T08:09:25.684Z,62.17
2023-04-02T08:11:58.270Z,62.46
2023-04-02T08:14:30.703Z,62.42
2023-04-02T08:17:03.078Z,62.38
2023-04-02T08:19:47.795Z,62.44
2023-04-02T08:22:27.732Z,62.28
2023-04-02T08:25:01.611Z,62.29
2023-04-02T08:27:35.413Z,62.51
2023-04-02T08:30:10.221Z,61.97
2023-04-02T08:32:43.190Z,61.95
2023-04-02T08:35:17.202Z,61.72
2023-04-02T08:37:49.709Z,61.71
2023-04-02T08:40:36.538Z,61.85
2023-04-02T08:43:15.785Z,61.58
2023-04-02T08:46:17.657Z,61.88
2023-04-02T08:48:58.409Z,61.45
2023-04-02T08:51:34.779Z,61.26
2023-04-02T08:54:38.071Z,61.33
2023-04-02T08:57:13.582Z,61.28
2023-04-02T08:59:47.212Z,61.19
2023-04-02T09:02:40.808Z,61.16
2023-04-02T09:05:34.710Z,61.45
2023-04-02T09:08:22.622Z,61.06
2023-04-02T09:11:19.215Z,61.33
2023-04-02T09:13:57.394Z,61.21
2023-04-02T09:16:49.729Z,60.95
2023-04-02T09:19:31.575Z,61.03
2023-04-02T09:22:07.809Z,61.19
2023-04-02T09:24:42.553Z,60.90
2023-04-02T09:27:24.974Z,60.90
2023-04-02T09:30:18.957Z,61.01
2023-04-02T09:32:54.281Z,61.39
2023-04-02T09:35:29.327Z,60.79
2023-04-02T09:38:07.786Z,60.94
2023-04-02T09:41:05.760Z,61.16
2023-04-02T09:43:39.213Z,61.43
2023-04-02T09:46:15.591Z,61.43
2023-04-02T09:48:58.523Z,61.19
2023-04-02T09:51:34.773Z,61.50
2023-04-02T09:54:14.314Z,61.45
2023-04-02T09:57:03.430Z,61.44
2023-04-02T09:59:36.163Z,61.20
2023-04-02T10:02:28.826Z,61.25
2023-04-02T10:05:04.841Z,61.41
2023-04-02T10:07:43.836Z,61.32
2023-04-02T10:10:41.916Z,61.55
2023-04-02T10:13:21.038Z,61.22
2023-04-02T10:15:59.470Z,61.41
2023-04-02T10:18:44.165Z,61.49
2023-04-02T10:21:25.294Z,61.54
2023-04-02T10:23:59.676Z,61.13
2023-04-02T10:26:32.016Z,61.20
2023-04-02T10:29:18.378Z,61.06
2023-04-02T10:32:03.066Z,61.09
2023-04-02T10:34:58.702Z,61.17
2023-04-02T10:37:47.293Z,61.19
2023-04-02T10:40:35.691Z,61.16
2023-04-02T10:43:27.495Z,60.97
2023-04-02T10:49:42.719Z,60.93
2023-04-02T10:52:26.852Z,60.94
2023-04-02T10:55:16.792Z,60.88
2023-04-02T10:57:52.124Z,60.38
2023-04-02T11:00:28.228Z,60.77
2023-04-02T11:03:09.465Z,60.83
2023-04-02T11:05:53.596Z,60.66
2023-04-02T11:08:41.697Z,60.42
2023-04-02T11:11:49.181Z,60.53
2023-04-02T11:14:28.933Z,60.50
2023-04-02T11:17:04.807Z,60.57
2023-04-02T11:19:37.838Z,60.52
2023-04-02T11:22:23.397Z,60.37
2023-04-02T11:24:57.533Z,60.33
2023-04-02T11:27:32.828Z,60.21
2023-04-02T11:30:24.651Z,60.35
2023-04-02T11:33:35.872Z,60.24
2023-04-02T11:36:46.635Z,60.25
2023-04-02T11:39:55.210Z,60.32
2023-04-02T11:42:33.548Z,60.34
2023-04-02T11:45:23.806Z,60.02
2023-04-02T11:48:02.556Z,60.02
2023-04-02T11:50:43.157Z,60.46
2023-04-02T11:53:21.694Z,59.76
2023-04-02T11:55:56.729Z,60.02
2023-04-02T11:59:02.419Z,59.85
2023-04-02T12:01:59.165Z,59.86
2023-04-02T12:04:56.668Z,59.84
2023-04-02T12:07:46.886Z,60.08
2023-04-02T12:10:28.416Z,59.65
2023-04-02T12:13:00.911Z,59.69
2023-04-02T12:15:46.522Z,59.67
2023-04-02T12:18:24.356Z,59.74
2023-04-02T12:20:57.578Z,59.66
2023-04-02T12:23:33.424Z,59.49
2023-04-02T12:26:23.086Z,59.62
2023-04-02T12:28:56.429Z,59.37
2023-04-02T12:31:29.875Z,59.39
2023-04-02T12:34:02.498Z,59.34
2023-04-02T12:36:36.214Z,59.01
2023-04-02T12:39:17.420Z,59.34
2023-04-02T12:41:50.031Z,59.55
2023-04-02T12:44:28.605Z,59.65
2023-04-02T12:47:01.228Z,58.99
2023-04-02T12:49:39.608Z,59.08
2023-04-02T12:52:17.577Z,59.38
2023-04-02T12:54:53.245Z,59.57
2023-04-02T12:57:25.962Z,59.52
2023-04-02T13:00:22.512Z,59.05
2023-04-02T13:03:18.274Z,58.95
2023-04-02T13:05:53.358Z,59.04
2023-04-02T13:08:29.568Z,58.83
2023-04-02T13:11:03.991Z,58.86
2023-04-02T13:13:39.795Z,58.60
2023-04-02T13:16:15.173Z,58.63
2023-04-02T13:18:49.578Z,58.63
2023-04-02T13:21:29.943Z,58.62
2023-04-02T13:24:02.333Z,58.35
2023-04-02T13:26:34.769Z,58.61
2023-04-02T13:29:26.817Z,58.22
2023-04-02T13:32:08.063Z,58.62
2023-04-02T13:34:40.860Z,58.20
2023-04-02T13:37:13.396Z,57.99
2023-04-02T13:39:45.750Z,58.36
2023-04-02T13:42:19.436Z,57.80
2023-04-02T13:44:51.793Z,57.26
2023-04-02T13:47:24.834Z,57.96
2023-04-02T13:49:57.238Z,58.18
2023-04-02T13:52:29.861Z,57.95
2023-04-02T13:55:03.369Z,57.95
2023-04-02T13:57:35.803Z,57.52
2023-04-02T14:00:08.915Z,57.83
2023-04-02T14:02:47.596Z,57.71
2023-04-02T14:05:57.219Z,57.59
2023-04-02T14:08:56.042Z,57.06
2023-04-02T14:11:52.522Z,57.15
2023-04-02T14:14:50.019Z,56.18
2023-04-02T14:17:38.408Z,55.47
2023-04-02T14:20:20.810Z,53.83
2023-04-02T14:23:05.738Z,53.22
2023-04-02T14:26:15.425Z,51.32
2023-04-02T14:28:50.771Z,50.98
2023-04-02T14:31:43.211Z,50.31
2023-04-02T14:34:43.192Z,50.42
2023-04-02T14:37:45.750Z,50.75
2023-04-02T14:40:37.230Z,50.63
2023-04-02T14:43:15.998Z,50.67
2023-04-02T14:45:51.759Z,49.90
2023-04-02T14:48:33.044Z,48.95
2023-04-02T14:51:14.836Z,48.96
2023-04-02T14:54:11.707Z,47.99
2023-04-02T14:56:57.245Z,48.50
2023-04-02T14:59:30.010Z,48.85
2023-04-02T15:02:41.553Z,49.00
2023-04-02T15:05:32.570Z,49.21
2023-04-02T15:08:24.702Z,49.90
2023-04-02T15:11:10.518Z,50.00
2023-04-02T15:13:50.022Z,50.02
2023-04-02T15:16:26.770Z,50.05
2023-04-02T15:19:01.294Z,49.88
2023-04-02T15:22:09.525Z,50.08
2023-04-02T15:25:16.751Z,50.37
2023-04-02T15:28:30.271Z,50.96
2023-04-02T15:31:10.120Z,51.32
2023-04-02T15:33:44.072Z,51.06
2023-04-02T15:36:35.527Z,50.92
2023-04-02T15:39:28.497Z,50.20
2023-04-02T15:42:25.674Z,49.57
2023-04-02T15:45:10.938Z,49.99
2023-04-02T15:47:52.578Z,49.70
2023-04-02T15:50:50.455Z,49.00
2023-04-02T15:53:43.593Z,49.02
2023-04-02T15:56:48.988Z,48.37
2023-04-02T15:59:59.562Z,47.92
2023-04-02T16:02:34.785Z,47.93
2023-04-02T16:05:27.353Z,47.53
2023-04-02T16:08:31.782Z,47.63
2023-04-02T16:11:13.304Z,47.96
2023-04-02T16:13:47.391Z,48.14
2023-04-02T16:16:26.909Z,47.82
2023-04-02T16:19:05.557Z,47.56
2023-04-02T16:21:58.933Z,47.13
2023-04-02T16:24:31.381Z,47.19
2023-04-02T16:27:15.044Z,47.28
2023-04-02T16:30:07.892Z,46.96
2023-04-02T16:32:55.687Z,47.20
2023-04-02T16:36:16.660Z,47.15
2023-04-02T16:39:32.633Z,47.16
2023-04-02T16:42:05.544Z,47.70
2023-04-02T16:45:04.482Z,47.72
2023-04-02T16:47:59.960Z,48.08
2023-04-02T16:50:57.126Z,48.07
2023-04-02T16:54:00.627Z,48.58
2023-04-02T16:56:52.710Z,49.06
2023-04-02T16:59:53.411Z,49.28
2023-04-02T17:02:35.132Z,49.95
2023-04-02T17:05:11.010Z,50.13
2023-04-02T17:08:15.513Z,50.48
2023-04-02T17:11:01.974Z,50.57
2023-04-02T17:14:06.176Z,51.13
2023-04-02T17:16:46.749Z,51.86
2023-04-02T17:19:20.914Z,51.29
2023-04-02T17:21:58.809Z,52.09
2023-04-02T17:24:39.022Z,51.81
2023-04-02T17:27:30.218Z,51.86
2023-04-02T17:30:13.816Z,52.59
2023-04-02T17:32:46.412Z,52.74
2023-04-02T17:35:32.298Z,52.78
2023-04-02T17:38:20.981Z,53.44
2023-04-02T17:41:22.634Z,53.57
2023-04-02T17:44:36.815Z,54.09
2023-04-02T17:47:23.803Z,53.90
2023-04-02T17:50:19.646Z,54.02
2023-04-02T17:53:34.109Z,54.50
2023-04-02T17:56:09.516Z,54.23
2023-04-02T17:59:00.507Z,55.07
2023-04-02T18:01:36.784Z,54.63
2023-04-02T18:04:39.396Z,55.24
2023-04-02T18:07:34.945Z,55.07
2023-04-02T18:10:41.276Z,55.54
2023-04-02T18:13:46.356Z,54.98
2023-04-02T18:16:32.444Z,56.07
2023-04-02T18:19:17.242Z,55.86
2023-04-02T18:22:07.966Z,55.68
2023-04-02T18:25:02.375Z,55.95
2023-04-02T18:28:07.250Z,56.24
2023-04-02T18:30:43.898Z,55.79
2023-04-02T18:33:30.528Z,56.67
2023-04-02T18:36:23.672Z,56.49
2023-04-02T18:39:20.934Z,56.78
2023-04-02T18:42:02.555Z,56.52
2023-04-02T18:44:38.899Z,56.44
2023-04-02T18:47:22.318Z,57.41
2023-04-02T18:50:18.690Z,57.32
2023-04-02T18:52:51.157Z,57.47
2023-04-02T18:55:30.775Z,57.11
2023-04-02T18:58:15.031Z,57.24
2023-04-02T19:00:50.020Z,57.51
2023-04-02T19:03:36.757Z,57.92
2023-04-02T19:06:19.345Z,57.62
2023-04-02T19:08:58.856Z,57.49
2023-04-02T19:11:32.143Z,57.67
2023-04-02T19:14:13.053Z,57.27
2023-04-02T19:16:51.328Z,57.43
2023-04-02T19:19:27.213Z,57.00
2023-04-02T19:22:24.274Z,57.93
2023-04-02T19:25:36.721Z,57.36
2023-04-02T19:28:13.617Z,57.98
2023-04-02T19:31:05.733Z,58.07
2023-04-02T19:34:02.457Z,57.47
2023-04-02T19:37:09.781Z,58.19
2023-04-02T19:40:05.104Z,57.79
2023-04-02T19:42:46.815Z,58.06
2023-04-02T19:45:26.687Z,57.99
2023-04-02T19:48:03.733Z,58.46
2023-04-02T19:50:36.698Z,57.69
2023-04-02T19:53:09.495Z,58.38
2023-04-02T19:55:42.860Z,57.92
2023-04-02T19:58:36.142Z,57.64
2023-04-02T20:01:09.465Z,58.01
2023-04-02T20:03:42.448Z,58.08
2023-04-02T20:06:15.657Z,58.20
2023-04-02T20:08:48.076Z,58.43
2023-04-02T20:11:21.022Z,58.66
2023-04-02T20:13:54.536Z,58.36
2023-04-02T20:16:28.017Z,58.64
2023-04-02T20:19:00.839Z,58.60
2023-04-02T20:21:38.457Z,59.29
2023-04-02T20:24:11.462Z,59.05
2023-04-02T20:26:44.468Z,58.84
2023-04-02T20:29:17.025Z,59.61
2023-04-02T20:31:53.081Z,58.74
2023-04-02T20:34:26.105Z,59.54
2023-04-02T20:36:58.653Z,59.45
2023-04-02T20:39:31.108Z,60.18
2023-04-02T20:42:03.728Z,60.14
2023-04-02T20:44:36.387Z,59.79
2023-04-02T20:47:10.665Z,60.13
2023-04-02T20:49:43.346Z,59.98
2023-04-02T20:52:15.741Z,59.97
2023-04-02T20:54:48.089Z,60.15
2023-04-02T20:57:21.971Z,59.80
2023-04-02T20:59:54.663Z,60.53
2023-04-02T21:02:27.092Z,60.20
2023-04-02T21:04:59.370Z,60.17
2023-04-02T21:07:31.712Z,60.06
2023-04-02T21:10:05.272Z,60.21
2023-04-02T21:12:38.854Z,60.20
2023-04-02T21:15:13.701Z,60.39
2023-04-02T21:17:47.608Z,60.21
2023-04-02T21:20:21.221Z,60.29
2023-04-02T21:22:53.960Z,59.94
2023-04-02T21:25:26.415Z,60.25
2023-04-02T21:27:58.799Z,60.15
2023-04-02T21:30:33.160Z,60.14
2023-04-02T21:33:06.403Z,60.10
2023-04-02T21:35:39.148Z,60.25
2023-04-02T21:38:11.565Z,60.08
2023-04-02T21:40:44.089Z,59.82
2023-04-02T21:43:17.944Z,59.71
2023-04-02T21:45:50.382Z,60.29
2023-04-02T21:48:23.067Z,59.57
2023-04-02T21:50:56.008Z,59.71
2023-04-02T21:53:28.666Z,60.20
2023-04-02T21:56:06.539Z,59.83
2023-04-02T21:58:39.059Z,59.91
2023-04-02T22:01:23.927Z,60.55
2023-04-02T22:04:02.010Z,60.06
2023-04-02T22:06:40.409Z,59.74
2023-04-02T22:09:16.480Z,60.33
2023-04-02T22:11:54.165Z,59.84
2023-04-02T22:14:28.614Z,59.65
2023-04-02T22:17:01.333Z,60.30
2023-04-02T22:19:33.957Z,59.53
2023-04-02T22:22:06.519Z,60.08
2023-04-02T22:24:39.503Z,60.28
2023-04-02T22:27:12.625Z,59.94
2023-04-02T22:29:46.805Z,59.88
2023-04-02T22:32:19.094Z,59.86
2023-04-02T22:34:51.622Z,59.80
2023-04-02T22:37:25.211Z,59.81
2023-04-02T22:39:57.675Z,59.04
2023-04-02T22:42:30.463Z,58.99
2023-04-02T22:45:05.265Z,59.79
2023-04-02T22:47:37.744Z,59.39
2023-04-02T22:50:10.474Z,59.34
2023-04-02T22:52:44.286Z,59.20
2023-04-02T22:55:17.076Z,59.32
2023-04-02T22:57:49.543Z,59.07
2023-04-02T23:00:23.312Z,59.21
2023-04-02T23:02:56.877Z,59.01
2023-04-02T23:05:29.306Z,59.31
2023-04-02T23:08:02.035Z,58.93
2023-04-02T23:10:34.547Z,59.30
2023-04-02T23:13:07.691Z,58.95
2023-04-02T23:15:39.996Z,59.26
2023-04-02T23:18:12.538Z,58.90
2023-04-02T23:20:45.045Z,58.48
2023-04-02T23:23:17.973Z,58.77
2023-04-02T23:25:50.352Z,59.27
2023-04-02T23:28:23.416Z,58.97
2023-04-02T23:30:57.468Z,59.13
2023-04-02T23:33:30.253Z,59.01
2023-04-02T23:36:28.739Z,59.07
2023-04-02T23:39:04.840Z,58.75
2023-04-02T23:41:40.136Z,58.27
2023-04-02T23:44:13.140Z,58.60
2023-04-02T23:46:47.295Z,58.98
2023-04-02T23:49:21.562Z,58.65
2023-04-02T23:51:58.486Z,58.62
2023-04-02T23:54:31.328Z,58.13
2023-04-02T23:57:05.387Z,58.42
2023-04-02T23:59:39.293Z,58.67
